Time;durP1;ratioP1;P1;durP2;ratioP2;P2;SDS_P1;SDS_P2;PMS_P1;PMS_P2;Temp;Humidity;BMP_temperature;BMP_pressure;BME280_temperature;BME280_humidity;BME280_pressure;Samples;Min_cycle;Max_cycle;Signal;HPM_P1;HPM_P2
2024/01/11 00:00:29;;;;;;;268.33;112.63;;;-6.40;99.90;;;;;;5097931;28;20017;-53
2024/01/11 00:02:55;;;;;;;269.88;108.35;;;-6.40;99.90;;;;;;5097940;28;20401;-53
2024/01/11 00:05:21;;;;;;;270.25;114.05;;;-6.30;99.90;;;;;;5098185;28;20031;-53
2024/01/11 00:07:48;;;;;;;268.33;108.93;;;-6.30;99.90;;;;;;5097858;28;20024;-53
2024/01/11 00:10:14;;;;;;;301.92;119.93;;;-6.30;99.90;;;;;;5097630;28;20085;-53
2024/01/11 00:12:40;;;;;;;298.60;123.57;;;-6.30;99.90;;;;;;5097881;28;20473;-53
2024/01/11 00:15:06;;;;;;;299.40;122.03;;;-6.20;99.90;;;;;;5097775;28;20044;-53
2024/01/11 00:17:32;;;;;;;308.30;125.80;;;-6.20;99.90;;;;;;5097357;28;20060;-53
2024/01/11 00:19:58;;;;;;;296.42;123.72;;;-6.30;99.90;;;;;;5098025;28;20039;-53
2024/01/11 00:22:24;;;;;;;282.02;115.38;;;-6.30;99.90;;;;;;5097688;28;20020;-53
2024/01/11 00:24:49;;;;;;;310.73;122.07;;;-6.20;99.90;;;;;;5097493;28;20377;-53
2024/01/11 00:27:15;;;;;;;376.75;140.07;;;-6.20;99.90;;;;;;5097646;28;20042;-53
2024/01/11 00:29:41;;;;;;;594.50;212.50;;;-6.30;99.90;;;;;;5097784;28;20028;-53
2024/01/11 00:32:07;;;;;;;681.17;252.80;;;-6.40;99.90;;;;;;5097335;28;20167;-53
2024/01/11 00:34:33;;;;;;;635.60;229.27;;;-6.60;99.90;;;;;;5097451;28;20042;-53
2024/01/11 00:36:59;;;;;;;574.88;208.88;;;-6.50;99.90;;;;;;5097368;28;20027;-53
2024/01/11 00:39:25;;;;;;;506.02;181.38;;;-6.50;99.90;;;;;;5097113;28;20020;-53
2024/01/11 00:41:51;;;;;;;472.42;170.15;;;-6.60;99.90;;;;;;5097256;28;20043;-53
2024/01/11 00:44:17;;;;;;;418.48;149.48;;;-6.50;99.90;;;;;;5097385;28;20262;-53
2024/01/11 00:46:43;;;;;;;381.58;139.65;;;-6.50;99.90;;;;;;5097263;28;20485;-53
2024/01/11 00:49:09;;;;;;;521.05;171.55;;;-6.60;99.90;;;;;;5096015;28;20544;-53
2024/01/11 00:51:34;;;;;;;695.38;234.25;;;-6.50;99.90;;;;;;5096843;28;20047;-53
2024/01/11 00:54:00;;;;;;;830.13;271.77;;;-6.40;99.90;;;;;;5096801;28;20040;-53
2024/01/11 00:56:26;;;;;;;763.67;258.10;;;-6.40;99.90;;;;;;5097075;28;20060;-53
2024/01/11 00:58:52;;;;;;;675.85;231.95;;;-6.40;99.90;;;;;;5096920;28;20032;-53
2024/01/11 01:01:19;;;;;;;577.67;195.50;;;-6.30;99.90;;;;;;5096737;28;20053;-53
2024/01/11 01:03:44;;;;;;;447.70;151.00;;;-6.30;99.90;;;;;;5096893;28;20039;-53
2024/01/11 01:06:10;;;;;;;387.08;145.40;;;-6.30;99.90;;;;;;5096925;28;20114;-53
2024/01/11 01:08:36;;;;;;;307.50;123.35;;;-6.30;99.90;;;;;;5096424;28;20020;-53
2024/01/11 01:11:02;;;;;;;332.23;128.50;;;-6.30;99.90;;;;;;5096796;28;20099;-53
2024/01/11 01:13:28;;;;;;;372.27;140.30;;;-6.30;99.90;;;;;;5096673;28;20024;-53
2024/01/11 01:15:54;;;;;;;397.30;142.85;;;-6.30;99.90;;;;;;5096354;28;20051;-53
2024/01/11 01:18:20;;;;;;;368.42;141.38;;;-6.30;99.90;;;;;;5096474;28;20057;-53
2024/01/11 01:20:46;;;;;;;374.83;142.70;;;-6.20;99.90;;;;;;5096654;28;20066;-53
2024/01/11 01:23:12;;;;;;;434.88;154.48;;;-6.30;99.90;;;;;;5096301;28;20090;-53
2024/01/11 01:25:38;;;;;;;462.08;162.35;;;-6.30;99.90;;;;;;5096589;28;20024;-53
2024/01/11 01:28:04;;;;;;;601.53;206.20;;;-6.30;99.90;;;;;;5096373;28;20028;-53
2024/01/11 01:30:30;;;;;;;615.05;210.15;;;-6.40;99.90;;;;;;5096039;28;20081;-53
2024/01/11 01:32:56;;;;;;;641.80;221.30;;;-6.30;99.90;;;;;;5096346;28;20465;-53
2024/01/11 01:35:21;;;;;;;575.13;205.10;;;-6.40;99.90;;;;;;5096314;28;20103;-53
2024/01/11 01:37:47;;;;;;;511.00;175.35;;;-6.50;99.90;;;;;;5095920;28;20020;-53
2024/01/11 01:40:13;;;;;;;442.58;159.07;;;-6.50;99.90;;;;;;5096213;28;20059;-53
2024/01/11 01:42:46;;;;;;;391.15;140.20;;;-6.40;99.90;;;;;;5096194;28;20040;-53
2024/01/11 01:45:12;;;;;;;328.55;128.80;;;-6.40;99.90;;;;;;5096003;28;20054;-53
2024/01/11 01:47:40;;;;;;;287.63;117.72;;;-6.30;99.90;;;;;;5096132;28;20089;-53
2024/01/11 01:50:08;;;;;;;270.25;107.72;;;-6.30;99.90;;;;;;5096106;28;20047;-53
2024/01/11 01:52:34;;;;;;;264.38;106.45;;;-6.40;99.90;;;;;;5095745;28;20048;-53
2024/01/11 01:55:02;;;;;;;260.20;105.50;;;-6.50;99.90;;;;;;5095984;28;20047;-53
2024/01/11 01:57:30;;;;;;;256.38;102.45;;;-6.50;99.90;;;;;;5095902;28;20056;-53
2024/01/11 01:59:56;;;;;;;260.73;105.95;;;-6.40;99.90;;;;;;5095631;28;20393;-53
2024/01/11 02:02:23;;;;;;;267.42;102.05;;;-6.40;99.90;;;;;;5095358;28;20040;-53
2024/01/11 02:04:49;;;;;;;250.63;102.05;;;-6.40;99.90;;;;;;5095836;28;20350;-53
2024/01/11 02:07:15;;;;;;;241.35;99.00;;;-6.20;99.90;;;;;;5095319;28;20438;-53
2024/01/11 02:09:42;;;;;;;235.50;97.22;;;-6.40;99.90;;;;;;5095758;28;20473;-53
2024/01/11 02:12:10;;;;;;;226.07;91.55;;;-6.50;99.90;;;;;;5095694;28;20020;-53
2024/01/11 02:14:40;;;;;;;224.88;92.03;;;-6.60;99.90;;;;;;5095741;28;20049;-53
2024/01/11 02:17:06;;;;;;;222.52;93.20;;;-6.70;99.90;;;;;;5095645;28;20024;-53
2024/01/11 02:19:33;;;;;;;224.52;90.50;;;-6.70;99.90;;;;;;5095473;28;20104;-53
2024/01/11 02:22:06;;;;;;;225.30;91.35;;;-6.70;99.90;;;;;;5094325;28;20315;-53
2024/01/11 02:24:32;;;;;;;211.68;88.57;;;-6.60;99.90;;;;;;5095595;28;20382;-53
2024/01/11 02:27:01;;;;;;;220.90;94.15;;;-6.50;99.90;;;;;;5095522;28;20532;-53
2024/01/11 02:29:28;;;;;;;231.23;96.57;;;-6.50;99.90;;;;;;5095389;28;20389;-53
2024/01/11 02:31:58;;;;;;;212.00;91.35;;;-6.50;99.90;;;;;;5095577;28;20401;-53
2024/01/11 02:34:26;;;;;;;214.60;93.72;;;-6.50;99.90;;;;;;5095433;28;20039;-52
2024/01/11 02:36:52;;;;;;;224.18;92.28;;;-6.50;99.90;;;;;;5095158;28;20036;-53
2024/01/11 02:39:19;;;;;;;226.63;93.03;;;-6.50;99.90;;;;;;5095496;28;20019;-53
2024/01/11 02:41:49;;;;;;;244.00;101.00;;;-6.50;99.90;;;;;;5095338;28;20039;-53
2024/01/11 02:44:15;;;;;;;239.35;99.88;;;-6.40;99.90;;;;;;5095367;28;20028;-53
2024/01/11 02:46:41;;;;;;;241.90;101.38;;;-6.50;99.90;;;;;;5095331;28;20031;-53
2024/01/11 02:49:07;;;;;;;247.23;103.13;;;-6.50;99.90;;;;;;5095406;28;20024;-53
2024/01/11 02:51:33;;;;;;;244.98;101.95;;;-6.50;99.90;;;;;;5095140;28;20036;-53
2024/01/11 02:53:59;;;;;;;231.05;97.75;;;-6.40;99.90;;;;;;5095374;28;20070;-53
2024/01/11 02:56:25;;;;;;;229.95;96.03;;;-6.40;99.90;;;;;;5095311;28;20025;-53
2024/01/11 02:58:51;;;;;;;234.73;97.35;;;-6.40;99.90;;;;;;5092728;28;20025;-53
2024/01/11 03:01:17;;;;;;;234.65;97.65;;;-6.40;99.90;;;;;;5095083;28;20046;-53
2024/01/11 03:03:42;;;;;;;240.80;100.00;;;-6.40;99.90;;;;;;5095271;28;20127;-53
2024/01/11 03:06:08;;;;;;;228.23;97.88;;;-6.30;99.90;;;;;;5094991;28;20074;-53
2024/01/11 03:08:34;;;;;;;247.48;105.50;;;-6.30;99.90;;;;;;5094958;28;20035;-53
2024/01/11 03:11:00;;;;;;;251.20;104.38;;;-6.30;99.90;;;;;;5095093;28;20028;-53
2024/01/11 03:13:26;;;;;;;256.48;107.75;;;-6.30;99.90;;;;;;5096193;28;20028;-53
2024/01/11 03:15:51;;;;;;;255.32;108.97;;;-6.40;99.90;;;;;;5098983;28;20088;-53
2024/01/11 03:18:17;;;;;;;253.95;114.50;;;-6.30;99.90;;;;;;5098832;28;20059;-53
2024/01/11 03:20:43;;;;;;;271.98;115.10;;;-6.20;99.90;;;;;;5098706;28;20037;-53
2024/01/11 03:23:09;;;;;;;263.88;113.45;;;-6.10;99.90;;;;;;5098936;28;20462;-53
2024/01/11 03:25:35;;;;;;;263.13;113.32;;;-6.10;99.90;;;;;;5098791;28;20036;-53
2024/01/11 03:28:01;;;;;;;250.10;106.72;;;-6.00;99.90;;;;;;5098830;28;20028;-53
2024/01/11 03:30:27;;;;;;;243.40;104.85;;;-6.10;99.90;;;;;;5098397;28;20028;-53
2024/01/11 03:32:53;;;;;;;234.38;101.53;;;-5.90;99.90;;;;;;5098584;28;20035;-53
2024/01/11 03:35:19;;;;;;;238.25;105.15;;;-5.80;99.90;;;;;;5098469;28;20036;-53
2024/01/11 03:37:45;;;;;;;244.93;104.05;;;-5.90;99.90;;;;;;5098386;28;20496;-53
2024/01/11 03:40:11;;;;;;;244.93;107.28;;;-5.90;99.90;;;;;;5098431;28;20036;-53
2024/01/11 03:42:37;;;;;;;242.73;104.32;;;-5.80;99.90;;;;;;5098694;28;20027;-53
2024/01/11 03:45:04;;;;;;;258.73;107.78;;;-5.70;99.90;;;;;;5098043;28;20107;-53
2024/01/11 03:47:30;;;;;;;260.13;107.00;;;-5.60;99.90;;;;;;5098514;28;20020;-53
2024/01/11 03:49:56;;;;;;;234.35;99.93;;;-5.50;99.90;;;;;;5098434;28;20020;-53
2024/01/11 03:52:22;;;;;;;239.90;99.13;;;-5.50;99.90;;;;;;5098206;28;20542;-53
2024/01/11 03:54:48;;;;;;;241.75;97.63;;;-5.50;99.90;;;;;;5098315;28;20050;-53
2024/01/11 03:57:14;;;;;;;261.30;101.60;;;-5.60;99.90;;;;;;5098180;28;20040;-53
2024/01/11 03:59:40;;;;;;;258.27;100.07;;;-5.50;99.90;;;;;;5097916;28;20047;-53
2024/01/11 04:02:07;;;;;;;242.98;93.88;;;-5.50;99.90;;;;;;5097759;28;20054;-53
2024/01/11 04:04:33;;;;;;;238.23;91.75;;;-5.40;99.90;;;;;;5098199;28;20540;-53
2024/01/11 04:06:59;;;;;;;205.38;81.88;;;-5.40;99.90;;;;;;5098013;28;20024;-53
2024/01/11 04:09:25;;;;;;;214.15;85.95;;;-5.30;99.90;;;;;;5097800;28;20111;-54
2024/01/11 04:11:51;;;;;;;207.73;86.40;;;-5.20;99.90;;;;;;5097855;28;20031;-53
2024/01/11 04:14:16;;;;;;;210.35;83.93;;;-5.20;99.90;;;;;;5097505;28;20032;-53
2024/01/11 04:16:43;;;;;;;206.00;84.50;;;-5.20;99.90;;;;;;5097620;28;20024;-53
2024/01/11 04:19:09;;;;;;;198.50;81.13;;;-5.40;99.90;;;;;;5097832;28;20538;-53
2024/01/11 04:21:38;;;;;;;205.07;82.72;;;-5.30;99.90;;;;;;5097456;28;20028;-53
2024/01/11 04:24:05;;;;;;;209.40;86.93;;;-5.30;99.90;;;;;;5097554;28;20048;-53
2024/01/11 04:26:31;;;;;;;236.77;93.78;;;-5.20;99.90;;;;;;5096987;28;20024;-53
2024/01/11 04:28:59;;;;;;;220.98;90.25;;;-5.10;99.90;;;;;;5097312;28;20211;-53
2024/01/11 04:31:26;;;;;;;201.13;82.63;;;-5.20;99.90;;;;;;5097648;28;20028;-53
2024/01/11 04:33:52;;;;;;;172.25;72.43;;;-5.10;99.90;;;;;;5097408;28;20040;-53
2024/01/11 04:36:18;;;;;;;162.65;72.00;;;-5.10;99.90;;;;;;5097257;28;20038;-53
2024/01/11 04:38:46;;;;;;;168.63;72.10;;;-5.00;99.90;;;;;;5097369;28;20114;-53
2024/01/11 04:41:14;;;;;;;162.32;71.82;;;-5.10;99.90;;;;;;5097643;28;20443;-53
2024/01/11 04:43:43;;;;;;;164.35;71.13;;;-5.10;99.90;;;;;;5097415;28;20028;-53
2024/01/11 04:46:19;;;;;;;161.70;69.32;;;-5.20;99.90;;;;;;5097377;28;20024;-53
2024/01/11 04:48:46;;;;;;;151.07;66.85;;;-5.10;99.90;;;;;;5097458;28;20028;-53
2024/01/11 04:51:13;;;;;;;154.68;65.47;;;-5.00;99.90;;;;;;5097000;28;20543;-53
2024/01/11 04:53:43;;;;;;;138.73;62.83;;;-5.00;99.90;;;;;;5096983;28;20020;-53
2024/01/11 04:56:11;;;;;;;140.23;63.53;;;-5.00;99.90;;;;;;5096978;28;20405;-53
2024/01/11 04:58:39;;;;;;;204.10;90.70;;;-4.90;99.90;;;;;;5096738;28;20024;-53
2024/01/11 05:01:06;;;;;;;170.73;78.53;;;-4.80;99.90;;;;;;5096964;28;20024;-53
2024/01/11 05:03:32;;;;;;;166.48;76.95;;;-4.80;99.90;;;;;;5096794;28;20442;-53
2024/01/11 05:05:59;;;;;;;140.73;62.03;;;-4.70;99.90;;;;;;5096608;28;20036;-53
2024/01/11 05:08:29;;;;;;;143.13;57.03;;;-4.60;99.90;;;;;;5096318;28;20040;-53
2024/01/11 05:10:55;;;;;;;162.20;66.45;;;-4.60;99.90;;;;;;5096975;28;20040;-53
2024/01/11 05:13:21;;;;;;;145.75;61.13;;;-4.60;99.90;;;;;;5096444;28;20032;-53
2024/01/11 05:15:47;;;;;;;136.38;57.78;;;-4.50;99.90;;;;;;5096523;28;20305;-53
2024/01/11 05:18:13;;;;;;;153.98;65.03;;;-4.50;99.90;;;;;;5096579;28;20478;-53
2024/01/11 05:20:39;;;;;;;163.95;65.43;;;-4.30;99.90;;;;;;5096423;28;20277;-53
2024/01/11 05:23:05;;;;;;;133.38;57.72;;;-4.30;99.90;;;;;;5096524;28;20062;-53
2024/01/11 05:25:34;;;;;;;125.22;55.10;;;-4.20;99.90;;;;;;5096568;28;20390;-53
2024/01/11 05:28:03;;;;;;;130.55;61.00;;;-4.10;99.90;;;;;;5096274;28;20062;-53
2024/01/11 05:30:33;;;;;;;151.65;65.45;;;-4.40;99.90;;;;;;5096300;28;20032;-53
2024/01/11 05:32:59;;;;;;;149.48;61.45;;;-4.50;99.90;;;;;;5096259;28;20318;-53
2024/01/11 05:35:27;;;;;;;144.70;63.72;;;-4.50;99.90;;;;;;5095896;28;20020;-53
2024/01/11 05:37:55;;;;;;;151.82;64.20;;;-4.50;99.90;;;;;;5095332;28;20020;-53
2024/01/11 05:40:21;;;;;;;142.32;61.25;;;-4.40;99.90;;;;;;5096097;28;20123;-53
2024/01/11 05:42:47;;;;;;;128.38;56.83;;;-4.50;99.90;;;;;;5096243;28;20020;-53
2024/01/11 05:45:16;;;;;;;134.35;58.80;;;-4.60;99.90;;;;;;5096081;28;20511;-53
2024/01/11 05:47:43;;;;;;;140.25;60.13;;;-4.60;99.90;;;;;;5096002;28;20422;-53
2024/01/11 05:50:10;;;;;;;139.70;59.72;;;-4.50;99.90;;;;;;5095804;28;20032;-53
2024/01/11 05:52:36;;;;;;;147.45;61.40;;;-4.60;99.90;;;;;;5096015;28;20074;-53
2024/01/11 05:55:02;;;;;;;138.30;58.45;;;-4.60;99.90;;;;;;5095986;28;20024;-53
2024/01/11 05:57:27;;;;;;;175.50;75.22;;;-4.70;99.90;;;;;;5095711;28;20023;-53
2024/01/11 05:59:53;;;;;;;223.10;100.30;;;-4.70;99.90;;;;;;5095601;28;20131;-53
2024/01/11 06:02:22;;;;;;;206.57;93.60;;;-4.80;99.90;;;;;;5095813;28;20127;-53
2024/01/11 06:04:49;;;;;;;199.52;91.72;;;-4.70;99.90;;;;;;5095512;28;20032;-53
2024/01/11 06:07:15;;;;;;;189.32;85.07;;;-4.70;99.90;;;;;;5095883;28;20032;-53
2024/01/11 06:09:41;;;;;;;181.13;81.70;;;-4.70;99.90;;;;;;5095528;28;20461;-53
2024/01/11 06:12:07;;;;;;;178.15;80.40;;;-4.70;99.90;;;;;;5095614;28;20040;-53
2024/01/11 06:14:33;;;;;;;172.10;78.03;;;-4.70;99.90;;;;;;5093957;28;20065;-53
2024/01/11 06:16:59;;;;;;;169.23;77.20;;;-4.60;99.90;;;;;;5094090;28;20439;-53
2024/01/11 06:19:24;;;;;;;171.10;75.53;;;-4.70;99.90;;;;;;5093643;28;20024;-53
2024/01/11 06:21:50;;;;;;;164.00;74.03;;;-4.60;99.90;;;;;;5093899;28;20069;-53
2024/01/11 06:24:16;;;;;;;166.02;75.63;;;-4.50;99.90;;;;;;5094413;28;20180;-53
2024/01/11 06:26:42;;;;;;;162.93;70.78;;;-4.40;99.90;;;;;;5095195;28;20024;-53
2024/01/11 06:29:08;;;;;;;164.15;70.10;;;-4.60;99.90;;;;;;5094281;28;20053;-53
2024/01/11 06:31:34;;;;;;;157.80;72.40;;;-4.60;99.90;;;;;;5094635;28;20062;-53
2024/01/11 06:34:00;;;;;;;171.75;77.60;;;-4.60;99.90;;;;;;5094444;28;20043;-53
2024/01/11 06:36:25;;;;;;;197.98;90.40;;;-4.50;99.90;;;;;;5093533;28;20028;-53
2024/01/11 06:38:51;;;;;;;199.77;96.45;;;-4.40;99.90;;;;;;5094610;28;20028;-53
2024/01/11 06:41:17;;;;;;;169.25;75.60;;;-4.40;99.90;;;;;;5095101;28;20028;-53
2024/01/11 06:43:43;;;;;;;157.70;68.40;;;-4.40;99.90;;;;;;5095297;28;20032;-53
2024/01/11 06:46:10;;;;;;;148.70;64.30;;;-4.50;99.90;;;;;;5094728;28;20036;-53
2024/01/11 06:48:36;;;;;;;143.10;62.92;;;-4.30;99.90;;;;;;5096727;28;20024;-53
2024/01/11 06:51:03;;;;;;;145.70;65.40;;;-4.30;99.90;;;;;;5097898;28;20020;-53
2024/01/11 06:53:29;;;;;;;200.90;94.25;;;-4.20;99.90;;;;;;5096235;28;20150;-53
2024/01/11 06:55:54;;;;;;;176.55;83.72;;;-4.00;99.90;;;;;;5096100;28;20063;-53
2024/01/11 06:58:22;;;;;;;157.02;75.18;;;-3.90;99.90;;;;;;5093117;28;20409;-53
2024/01/11 07:00:49;;;;;;;160.93;71.50;;;-3.90;99.90;;;;;;5091256;28;20571;-53
2024/01/11 07:03:15;;;;;;;201.13;92.90;;;-3.90;99.90;;;;;;5092740;28;20074;-53
2024/01/11 07:05:41;;;;;;;168.32;74.70;;;-4.00;99.90;;;;;;5092733;28;20031;-53
2024/01/11 07:08:07;;;;;;;176.15;75.95;;;-3.90;99.90;;;;;;5098605;28;20579;-53
2024/01/11 07:10:33;;;;;;;178.93;81.13;;;-3.80;99.90;;;;;;5099329;28;20028;-54
2024/01/11 07:13:00;;;;;;;189.82;85.55;;;-3.70;99.90;;;;;;5097521;28;20032;-53
2024/01/11 07:15:26;;;;;;;209.27;92.55;;;-3.60;99.90;;;;;;5099236;28;20024;-53
2024/01/11 07:17:53;;;;;;;215.88;99.68;;;-3.70;99.90;;;;;;5097910;28;20043;-53
2024/01/11 07:20:19;;;;;;;215.07;97.93;;;-3.60;99.90;;;;;;5094048;28;20020;-53
2024/01/11 07:22:44;;;;;;;202.32;92.80;;;-3.60;99.90;;;;;;5098431;28;20511;-53
2024/01/11 07:25:11;;;;;;;208.00;96.03;;;-3.60;99.90;;;;;;5097796;28;20028;-53
2024/01/11 07:27:36;;;;;;;215.30;95.90;;;-3.60;99.90;;;;;;5097958;28;20024;-54
2024/01/11 07:30:03;;;;;;;210.23;95.43;;;-3.60;99.90;;;;;;5097814;28;20032;-53
2024/01/11 07:32:29;;;;;;;227.65;97.85;;;-3.50;99.90;;;;;;5096800;28;20028;-53
2024/01/11 07:34:54;;;;;;;235.48;96.90;;;-3.50;99.90;;;;;;5097430;28;20024;-53
2024/01/11 07:37:21;;;;;;;260.45;95.97;;;-3.40;99.90;;;;;;5097823;28;20027;-53
2024/01/11 07:39:46;;;;;;;199.27;89.07;;;-3.50;99.90;;;;;;5098429;28;20474;-53
2024/01/11 07:42:14;;;;;;;236.57;99.30;;;-3.40;99.90;;;;;;5098169;28;20422;-53
2024/01/11 07:44:40;;;;;;;253.65;105.43;;;-3.40;99.90;;;;;;5097175;28;20028;-53
2024/01/11 07:47:06;;;;;;;230.07;99.93;;;-3.40;99.90;;;;;;5095634;28;20489;-53
2024/01/11 07:49:32;;;;;;;218.98;95.35;;;-3.30;99.90;;;;;;5085638;28;20054;-53
2024/01/11 07:51:58;;;;;;;235.23;101.97;;;-3.30;99.90;;;;;;5092728;28;20034;-53
2024/01/11 07:54:23;;;;;;;232.38;101.22;;;-3.40;99.90;;;;;;5097614;28;20511;-53
2024/01/11 07:56:49;;;;;;;242.90;106.68;;;-3.40;99.90;;;;;;5095806;28;20024;-53
2024/01/11 07:59:15;;;;;;;247.48;111.60;;;-3.30;99.90;;;;;;5096625;28;20361;-53
2024/01/11 08:01:41;;;;;;;230.80;108.18;;;-3.30;99.90;;;;;;5096265;28;20028;-53
2024/01/11 08:04:07;;;;;;;304.42;127.45;;;-3.30;99.90;;;;;;5097617;28;20035;-53
2024/01/11 08:06:33;;;;;;;274.65;117.70;;;-3.30;99.90;;;;;;5095403;28;20032;-53
2024/01/11 08:08:59;;;;;;;337.60;138.05;;;-3.20;99.90;;;;;;5097444;28;20051;-53
2024/01/11 08:11:25;;;;;;;383.00;158.18;;;-3.10;99.90;;;;;;5096568;28;20028;-53
2024/01/11 08:13:53;;;;;;;460.63;174.73;;;-3.00;99.90;;;;;;5097958;28;20113;-53
2024/01/11 08:16:21;;;;;;;265.17;110.28;;;-2.90;99.90;;;;;;5094917;28;20614;-53
2024/01/11 08:18:48;;;;;;;208.60;88.95;;;-2.90;99.90;;;;;;5097426;28;20051;-53
2024/01/11 08:21:15;;;;;;;206.98;92.30;;;-2.80;99.90;;;;;;5097578;28;20028;-53
2024/01/11 08:23:44;;;;;;;186.68;83.45;;;-2.80;99.90;;;;;;5096975;28;20481;-53
2024/01/11 08:26:13;;;;;;;208.93;88.00;;;-2.90;99.90;;;;;;5096894;28;20028;-53
2024/01/11 08:28:40;;;;;;;194.98;84.15;;;-2.90;99.90;;;;;;5096914;28;20454;-53
2024/01/11 08:31:06;;;;;;;179.20;82.60;;;-2.90;99.90;;;;;;5100958;28;20044;-53
2024/01/11 08:33:32;;;;;;;169.32;77.53;;;-3.00;99.90;;;;;;5118125;28;20038;-53
2024/01/11 08:35:58;;;;;;;156.75;68.90;;;-3.10;99.90;;;;;;5105375;28;20024;-53
2024/01/11 08:38:25;;;;;;;159.40;70.60;;;-3.00;99.90;;;;;;5096711;28;20028;-53
2024/01/11 08:40:51;;;;;;;175.80;75.45;;;-2.90;99.90;;;;;;5095408;28;20038;-53
2024/01/11 08:43:17;;;;;;;160.00;72.18;;;-2.80;99.90;;;;;;5097197;28;20035;-53
2024/01/11 08:45:46;;;;;;;157.70;70.65;;;-2.80;99.90;;;;;;5099761;28;20036;-53
2024/01/11 08:48:13;;;;;;;155.15;70.65;;;-2.60;99.90;;;;;;5106229;28;20047;-53
2024/01/11 08:50:39;;;;;;;154.20;73.50;;;-2.50;99.90;;;;;;5085543;28;20037;-53
2024/01/11 08:53:05;;;;;;;156.55;66.63;;;-2.40;99.90;;;;;;5076440;28;20036;-53
2024/01/11 08:55:31;;;;;;;148.15;65.47;;;-2.40;99.90;;;;;;5085435;28;20028;-53
2024/01/11 08:57:57;;;;;;;141.65;64.18;;;-2.20;99.90;;;;;;5094128;28;20462;-53
2024/01/11 09:00:22;;;;;;;154.07;66.28;;;-2.00;99.90;;;;;;5096333;28;20024;-53
2024/01/11 09:02:49;;;;;;;149.77;65.90;;;-2.10;99.90;;;;;;5096137;28;20410;-53
2024/01/11 09:05:15;;;;;;;170.30;75.80;;;-2.20;99.90;;;;;;5096258;28;20078;-53
2024/01/11 09:07:42;;;;;;;154.43;69.72;;;-2.00;99.90;;;;;;5096207;28;20470;-53
2024/01/11 09:10:08;;;;;;;148.10;66.57;;;-1.70;99.90;;;;;;5096137;28;20054;-53
2024/01/11 09:12:35;;;;;;;151.70;68.35;;;-1.70;99.90;;;;;;5095386;28;20058;-53
2024/01/11 09:15:01;;;;;;;179.98;74.53;;;-1.60;99.90;;;;;;5094704;28;20032;-53
2024/01/11 09:17:26;;;;;;;171.05;72.70;;;-1.50;99.90;;;;;;5094195;28;20081;-53
2024/01/11 09:19:52;;;;;;;171.02;70.55;;;-1.50;99.90;;;;;;5089721;28;20082;-53
2024/01/11 09:22:18;;;;;;;172.00;71.68;;;-1.60;99.90;;;;;;5075822;28;20486;-53
2024/01/11 09:24:46;;;;;;;159.82;66.88;;;-1.70;99.90;;;;;;5088713;28;20036;-53
2024/01/11 09:27:13;;;;;;;148.98;63.15;;;-1.80;99.90;;;;;;5095666;28;20421;-53
2024/01/11 09:29:45;;;;;;;140.25;60.75;;;-1.80;99.90;;;;;;5094614;28;20099;-53
2024/01/11 09:32:12;;;;;;;159.15;64.03;;;-1.80;99.90;;;;;;5091884;28;20024;-53
2024/01/11 09:34:38;;;;;;;153.68;67.13;;;-1.60;99.90;;;;;;5095026;28;20054;-53
2024/01/11 09:37:05;;;;;;;152.10;63.75;;;-1.40;99.90;;;;;;5094075;28;20034;-53
2024/01/11 09:39:31;;;;;;;155.48;63.35;;;-1.50;99.90;;;;;;5094918;28;20028;-53
2024/01/11 09:42:07;;;;;;;145.13;60.63;;;-1.60;99.90;;;;;;5095661;28;20046;-53
2024/01/11 09:44:39;;;;;;;152.05;60.58;;;-1.70;99.90;;;;;;5094261;28;20515;-54
2024/01/11 09:47:10;;;;;;;136.60;51.15;;;-1.60;99.90;;;;;;5093555;28;20035;-54
2024/01/11 09:49:39;;;;;;;127.97;51.45;;;-1.90;99.90;;;;;;5092808;28;20815;-54
2024/01/11 09:52:08;;;;;;;127.35;52.05;;;-1.80;99.90;;;;;;5090674;28;20031;-54
2024/01/11 09:54:35;;;;;;;132.88;53.67;;;-1.80;99.90;;;;;;5093916;28;20462;-54
2024/01/11 09:57:03;;;;;;;127.10;53.75;;;-1.60;99.90;;;;;;5092204;28;20032;-54
2024/01/11 09:59:30;;;;;;;144.60;63.13;;;-1.50;99.90;;;;;;5083563;28;20017;-54
2024/01/11 10:01:56;;;;;;;150.23;58.97;;;-1.40;99.90;;;;;;5088566;28;20359;-54
2024/01/11 10:04:22;;;;;;;169.20;54.10;;;-1.40;99.90;;;;;;5093401;28;20031;-55
2024/01/11 10:06:50;;;;;;;154.48;51.28;;;-1.30;99.90;;;;;;5094612;28;20020;-54
2024/01/11 10:09:16;;;;;;;154.80;54.45;;;-1.40;99.60;;;;;;5095085;28;20020;-54
2024/01/11 10:11:44;;;;;;;159.77;54.55;;;-1.30;99.70;;;;;;5094431;28;20022;-54
2024/01/11 10:14:12;;;;;;;141.75;50.10;;;-1.10;99.90;;;;;;5095045;28;20032;-54
2024/01/11 10:16:38;;;;;;;165.50;56.40;;;-1.30;99.90;;;;;;5094938;28;20016;-54
2024/01/11 10:19:04;;;;;;;170.85;60.40;;;-1.10;99.90;;;;;;5095906;28;20035;-54
2024/01/11 10:21:30;;;;;;;180.27;59.30;;;-1.20;99.20;;;;;;5081702;28;20477;-54
2024/01/11 10:23:59;;;;;;;192.40;61.40;;;-1.20;99.80;;;;;;5094772;28;20032;-54
2024/01/11 10:26:25;;;;;;;177.80;58.25;;;-1.30;99.20;;;;;;5095234;28;20041;-54
2024/01/11 10:28:50;;;;;;;177.75;58.22;;;-1.50;99.60;;;;;;5095524;28;20024;-54
2024/01/11 10:31:16;;;;;;;191.55;62.28;;;-1.40;99.90;;;;;;5094784;28;20051;-54
2024/01/11 10:33:42;;;;;;;182.00;62.85;;;-1.30;99.90;;;;;;5095124;28;20028;-54
2024/01/11 10:36:09;;;;;;;200.68;66.85;;;-1.40;99.90;;;;;;5075054;28;20482;-54
2024/01/11 10:38:39;;;;;;;190.10;67.30;;;-1.20;99.90;;;;;;5084974;28;20384;-54
2024/01/11 10:41:06;;;;;;;182.35;63.58;;;-1.20;99.90;;;;;;5095267;28;20050;-54
2024/01/11 10:43:36;;;;;;;203.82;67.95;;;-0.90;99.90;;;;;;5094747;28;20031;-54
2024/01/11 10:46:04;;;;;;;192.90;63.13;;;-0.90;99.90;;;;;;5094894;28;20063;-54
2024/01/11 10:48:39;;;;;;;164.40;60.80;;;-0.70;99.90;;;;;;5095353;28;20036;-54
2024/01/11 10:51:09;;;;;;;180.00;59.20;;;-1.00;98.90;;;;;;5094532;28;20135;-54
2024/01/11 10:53:50;;;;;;;;;;;-1.10;98.70;;;;;;5082564;28;20047;-54
2024/01/11 10:56:16;;;;;;;185.13;60.08;;;-1.20;99.70;;;;;;5088442;28;19915;-54
2024/01/11 10:58:48;;;;;;;197.70;66.20;;;-1.30;99.90;;;;;;5075230;28;20033;-54
2024/01/11 11:01:16;;;;;;;198.20;69.80;;;-1.20;99.90;;;;;;5074714;28;20028;-54
2024/01/11 11:03:44;;;;;;;177.25;61.45;;;-1.10;99.90;;;;;;5074870;28;20036;-54
2024/01/11 11:06:11;;;;;;;199.25;64.10;;;-1.00;99.90;;;;;;5074705;28;20036;-54
2024/01/11 11:08:39;;;;;;;171.18;58.97;;;-1.20;99.90;;;;;;5078831;28;20524;-54
2024/01/11 11:11:06;;;;;;;204.18;64.90;;;-1.20;99.90;;;;;;5095170;28;20496;-54
2024/01/11 11:13:34;;;;;;;182.40;60.38;;;-1.00;99.90;;;;;;5094979;28;20492;-54
2024/01/11 11:16:02;;;;;;;175.50;58.28;;;-1.10;99.50;;;;;;5090424;28;20465;-54
2024/01/11 11:18:28;;;;;;;180.43;60.45;;;-0.80;98.80;;;;;;5083377;28;20532;-54
2024/01/11 11:20:54;;;;;;;190.93;63.08;;;-1.20;98.90;;;;;;5073390;28;20041;-54
2024/01/11 11:23:20;;;;;;;202.80;65.32;;;-1.10;99.40;;;;;;5080147;28;20025;-54
2024/01/11 11:25:47;;;;;;;180.55;60.83;;;-1.10;99.10;;;;;;5094319;28;20035;-54
2024/01/11 11:28:15;;;;;;;181.00;63.13;;;-1.60;99.90;;;;;;5094953;28;20050;-54
2024/01/11 11:30:43;;;;;;;181.20;64.55;;;-1.80;99.80;;;;;;5094016;28;20028;-54
2024/01/11 11:33:10;;;;;;;203.88;64.75;;;-1.70;99.90;;;;;;5094853;28;20024;-54
2024/01/11 11:35:37;;;;;;;197.63;65.70;;;-1.60;99.90;;;;;;5097476;28;20039;-54
2024/01/11 11:38:05;;;;;;;181.90;62.67;;;-1.70;99.90;;;;;;5090863;28;20033;-54
2024/01/11 11:40:40;;;;;;;191.75;65.82;;;-1.70;99.90;;;;;;5094380;28;20379;-54
2024/01/11 11:43:06;;;;;;;199.38;66.45;;;-1.50;99.90;;;;;;5092387;28;20059;-54
2024/01/11 11:45:32;;;;;;;184.52;62.03;;;-1.30;99.90;;;;;;5098377;28;20044;-54
2024/01/11 11:47:58;;;;;;;197.20;68.45;;;-1.40;99.90;;;;;;5098792;28;20051;-54
2024/01/11 11:50:24;;;;;;;201.73;67.32;;;-1.60;99.90;;;;;;5098553;28;20032;-54
2024/01/11 11:52:57;;;;;;;197.73;66.15;;;-1.30;99.90;;;;;;5098047;28;20390;-54
2024/01/11 11:55:28;;;;;;;192.38;63.13;;;-1.70;99.90;;;;;;5097919;28;20035;-54
2024/01/11 11:57:54;;;;;;;179.40;60.80;;;-1.70;99.90;;;;;;5097237;28;20459;-54
2024/01/11 12:00:20;;;;;;;213.75;67.15;;;-1.70;99.90;;;;;;5097683;28;20024;-54
2024/01/11 12:02:47;;;;;;;172.18;60.17;;;-1.40;99.90;;;;;;5094708;28;20065;-54
2024/01/11 12:05:14;;;;;;;180.40;62.15;;;-1.20;99.90;;;;;;5097642;28;20031;-54
2024/01/11 12:07:40;;;;;;;183.55;63.47;;;-1.00;99.90;;;;;;5093941;28;20114;-54
2024/01/11 12:10:06;;;;;;;179.68;61.25;;;-1.10;99.30;;;;;;5093981;28;20561;-54
2024/01/11 12:12:35;;;;;;;179.10;64.15;;;-1.00;99.70;;;;;;5098105;28;20114;-56